sensor_id;sensor_type;location;lat;lon;timestamp;P1;durP1;ratioP1;P2;durP2;ratioP2
17854;SDS011;9053;53.358;6.382;2023-04-24T04:36:27;8.23;;;5.80;;
17854;SDS011;9053;53.358;6.382;2023-04-24T04:39:17;5.90;;;5.23;;
17854;SDS011;9053;53.358;6.382;2023-04-24T05:10:12;7.50;;;4.93;;
17854;SDS011;9053;53.358;6.382;2023-04-24T05:12:44;4.63;;;4.10;;
17854;SDS011;9053;53.358;6.382;2023-04-24T05:15:14;7.00;;;3.73;;
17854;SDS011;9053;53.358;6.382;2023-04-24T05:17:45;7.63;;;3.67;;
17854;SDS011;9053;53.358;6.382;2023-04-24T05:20:15;7.00;;;4.90;;
17854;SDS011;9053;53.358;6.382;2023-04-24T05:22:47;8.60;;;5.77;;
17854;SDS011;9053;53.358;6.382;2023-04-24T05:25:20;9.17;;;6.47;;
17854;SDS011;9053;53.358;6.382;2023-04-24T05:28:01;9.40;;;6.40;;
17854;SDS011;9053;53.358;6.382;2023-04-24T05:30:32;6.27;;;4.77;;
17854;SDS011;9053;53.358;6.382;2023-04-24T05:33:02;6.80;;;4.67;;
17854;SDS011;9053;53.358;6.382;2023-04-24T05:35:35;6.10;;;3.90;;
17854;SDS011;9053;53.358;6.382;2023-04-24T05:38:11;4.17;;;3.50;;
17854;SDS011;9053;53.358;6.382;2023-04-24T05:40:47;5.60;;;4.27;;
17854;SDS011;9053;53.358;6.382;2023-04-24T05:43:19;6.50;;;4.33;;
17854;SDS011;9053;53.358;6.382;2023-04-24T05:48:38;8.27;;;5.70;;
17854;SDS011;9053;53.358;6.382;2023-04-24T05:51:08;8.73;;;5.90;;
17854;SDS011;9053;53.358;6.382;2023-04-24T05:53:43;8.07;;;5.60;;
17854;SDS011;9053;53.358;6.382;2023-04-24T05:56:38;7.30;;;5.43;;
17854;SDS011;9053;53.358;6.382;2023-04-24T05:59:16;7.17;;;5.20;;
17854;SDS011;9053;53.358;6.382;2023-04-24T06:01:46;9.30;;;5.50;;
17854;SDS011;9053;53.358;6.382;2023-04-24T06:04:21;7.23;;;4.83;;
17854;SDS011;9053;53.358;6.382;2023-04-24T06:06:51;5.80;;;4.90;;
17854;SDS011;9053;53.358;6.382;2023-04-24T06:09:31;5.93;;;4.07;;
17854;SDS011;9053;53.358;6.382;2023-04-24T06:12:08;4.67;;;3.73;;
17854;SDS011;9053;53.358;6.382;2023-04-24T06:14:44;5.37;;;3.47;;
17854;SDS011;9053;53.358;6.382;2023-04-24T06:17:20;6.07;;;3.53;;
17854;SDS011;9053;53.358;6.382;2023-04-24T06:19:53;7.83;;;3.60;;
17854;SDS011;9053;53.358;6.382;2023-04-24T06:22:26;5.60;;;3.33;;
17854;SDS011;9053;53.358;6.382;2023-04-24T06:25:00;5.43;;;3.43;;
17854;SDS011;9053;53.358;6.382;2023-04-24T06:27:40;4.93;;;3.07;;
17854;SDS011;9053;53.358;6.382;2023-04-24T06:30:13;5.03;;;2.73;;
17854;SDS011;9053;53.358;6.382;2023-04-24T06:32:44;3.83;;;2.63;;
17854;SDS011;9053;53.358;6.382;2023-04-24T06:35:48;4.80;;;2.30;;
17854;SDS011;9053;53.358;6.382;2023-04-24T06:38:18;3.53;;;2.30;;
17854;SDS011;9053;53.358;6.382;2023-04-24T06:40:48;4.90;;;2.80;;
17854;SDS011;9053;53.358;6.382;2023-04-24T06:43:22;5.50;;;2.63;;
17854;SDS011;9053;53.358;6.382;2023-04-24T06:45:51;4.70;;;2.57;;
17854;SDS011;9053;53.358;6.382;2023-04-24T06:48:21;3.67;;;2.30;;
17854;SDS011;9053;53.358;6.382;2023-04-24T06:50:53;7.93;;;2.40;;
17854;SDS011;9053;53.358;6.382;2023-04-24T06:53:25;3.90;;;2.30;;
17854;SDS011;9053;53.358;6.382;2023-04-24T06:55:58;4.80;;;2.47;;
17854;SDS011;9053;53.358;6.382;2023-04-24T06:58:30;3.73;;;2.40;;
17854;SDS011;9053;53.358;6.382;2023-04-24T07:01:01;3.93;;;2.53;;
17854;SDS011;9053;53.358;6.382;2023-04-24T07:03:34;5.63;;;2.60;;
17854;SDS011;9053;53.358;6.382;2023-04-24T07:06:11;7.23;;;3.50;;
17854;SDS011;9053;53.358;6.382;2023-04-24T07:08:49;7.70;;;3.57;;
17854;SDS011;9053;53.358;6.382;2023-04-24T07:11:21;4.70;;;3.30;;
17854;SDS011;9053;53.358;6.382;2023-04-24T07:13:59;4.50;;;3.20;;
17854;SDS011;9053;53.358;6.382;2023-04-24T07:16:29;3.60;;;2.20;;
17854;SDS011;9053;53.358;6.382;2023-04-24T07:19:10;5.53;;;2.10;;
17854;SDS011;9053;53.358;6.382;2023-04-24T07:21:40;4.63;;;2.83;;
17854;SDS011;9053;53.358;6.382;2023-04-24T07:24:16;3.73;;;2.43;;
17854;SDS011;9053;53.358;6.382;2023-04-24T07:26:50;6.60;;;4.00;;
17854;SDS011;9053;53.358;6.382;2023-04-24T07:29:30;5.67;;;4.23;;
17854;SDS011;9053;53.358;6.382;2023-04-24T07:32:02;8.20;;;5.60;;
17854;SDS011;9053;53.358;6.382;2023-04-24T07:34:40;11.63;;;6.30;;
17854;SDS011;9053;53.358;6.382;2023-04-24T07:37:10;9.43;;;6.63;;
17854;SDS011;9053;53.358;6.382;2023-04-24T07:39:42;13.10;;;8.00;;
17854;SDS011;9053;53.358;6.382;2023-04-24T07:42:12;13.30;;;8.87;;
17854;SDS011;9053;53.358;6.382;2023-04-24T07:44:56;17.33;;;9.73;;
17854;SDS011;9053;53.358;6.382;2023-04-24T07:47:27;18.80;;;10.83;;
17854;SDS011;9053;53.358;6.382;2023-04-24T07:50:02;23.77;;;13.17;;
17854;SDS011;9053;53.358;6.382;2023-04-24T07:52:38;23.23;;;13.80;;
17854;SDS011;9053;53.358;6.382;2023-04-24T07:55:12;20.43;;;12.80;;
17854;SDS011;9053;53.358;6.382;2023-04-24T07:57:43;23.23;;;12.87;;
17854;SDS011;9053;53.358;6.382;2023-04-24T08:00:18;19.60;;;12.53;;
17854;SDS011;9053;53.358;6.382;2023-04-24T08:02:55;22.60;;;13.37;;
17854;SDS011;9053;53.358;6.382;2023-04-24T08:05:25;21.73;;;13.90;;
17854;SDS011;9053;53.358;6.382;2023-04-24T08:08:07;22.53;;;13.80;;
17854;SDS011;9053;53.358;6.382;2023-04-24T08:10:40;20.83;;;13.47;;
17854;SDS011;9053;53.358;6.382;2023-04-24T08:13:20;20.73;;;12.10;;
17854;SDS011;9053;53.358;6.382;2023-04-24T08:15:56;18.43;;;11.23;;
17854;SDS011;9053;53.358;6.382;2023-04-24T08:18:26;19.73;;;11.40;;
17854;SDS011;9053;53.358;6.382;2023-04-24T08:20:56;18.97;;;11.20;;
17854;SDS011;9053;53.358;6.382;2023-04-24T08:23:28;16.27;;;10.73;;
17854;SDS011;9053;53.358;6.382;2023-04-24T08:25:59;13.53;;;9.87;;
17854;SDS011;9053;53.358;6.382;2023-04-24T08:28:34;18.40;;;11.03;;
17854;SDS011;9053;53.358;6.382;2023-04-24T08:31:08;16.53;;;10.67;;
17854;SDS011;9053;53.358;6.382;2023-04-24T08:33:48;18.37;;;10.93;;
17854;SDS011;9053;53.358;6.382;2023-04-24T08:36:21;15.87;;;10.50;;
17854;SDS011;9053;53.358;6.382;2023-04-24T08:39:15;15.67;;;9.77;;
17854;SDS011;9053;53.358;6.382;2023-04-24T08:41:59;15.23;;;10.87;;
17854;SDS011;9053;53.358;6.382;2023-04-24T08:44:36;17.43;;;10.83;;
17854;SDS011;9053;53.358;6.382;2023-04-24T08:50:04;12.97;;;8.43;;
17854;SDS011;9053;53.358;6.382;2023-04-24T08:52:36;12.73;;;8.10;;
17854;SDS011;9053;53.358;6.382;2023-04-24T08:55:09;15.17;;;8.03;;
17854;SDS011;9053;53.358;6.382;2023-04-24T08:57:46;10.80;;;7.80;;
17854;SDS011;9053;53.358;6.382;2023-04-24T09:00:26;12.13;;;7.97;;
17854;SDS011;9053;53.358;6.382;2023-04-24T09:03:05;12.67;;;8.07;;
17854;SDS011;9053;53.358;6.382;2023-04-24T09:05:35;12.30;;;7.57;;
17854;SDS011;9053;53.358;6.382;2023-04-24T09:08:12;11.53;;;7.13;;
17854;SDS011;9053;53.358;6.382;2023-04-24T09:10:43;8.70;;;6.50;;
17854;SDS011;9053;53.358;6.382;2023-04-24T09:13:16;10.87;;;6.93;;
17854;SDS011;9053;53.358;6.382;2023-04-24T09:15:50;8.80;;;7.43;;
17854;SDS011;9053;53.358;6.382;2023-04-24T09:18:34;10.87;;;7.47;;
17854;SDS011;9053;53.358;6.382;2023-04-24T09:21:06;14.10;;;7.43;;
17854;SDS011;9053;53.358;6.382;2023-04-24T09:23:39;11.20;;;6.90;;
17854;SDS011;9053;53.358;6.382;2023-04-24T09:26:11;13.13;;;6.83;;
17854;SDS011;9053;53.358;6.382;2023-04-24T09:28:46;13.63;;;6.83;;
17854;SDS011;9053;53.358;6.382;2023-04-24T09:31:18;16.37;;;7.03;;
17854;SDS011;9053;53.358;6.382;2023-04-24T09:34:00;13.50;;;6.77;;
17854;SDS011;9053;53.358;6.382;2023-04-24T09:36:34;11.70;;;5.43;;
17854;SDS011;9053;53.358;6.382;2023-04-24T09:39:08;10.77;;;5.80;;
17854;SDS011;9053;53.358;6.382;2023-04-24T09:41:45;9.00;;;5.30;;
17854;SDS011;9053;53.358;6.382;2023-04-24T09:44:23;9.67;;;5.63;;
17854;SDS011;9053;53.358;6.382;2023-04-24T09:46:55;9.43;;;5.23;;
17854;SDS011;9053;53.358;6.382;2023-04-24T09:49:33;9.53;;;4.67;;
17854;SDS011;9053;53.358;6.382;2023-04-24T09:52:06;10.97;;;5.07;;
17854;SDS011;9053;53.358;6.382;2023-04-24T09:54:40;13.20;;;4.83;;
17854;SDS011;9053;53.358;6.382;2023-04-24T09:57:10;8.37;;;5.10;;
17854;SDS011;9053;53.358;6.382;2023-04-24T09:59:41;11.60;;;5.37;;
17854;SDS011;9053;53.358;6.382;2023-04-24T10:02:18;8.43;;;4.23;;
17854;SDS011;9053;53.358;6.382;2023-04-24T10:04:57;8.73;;;4.43;;
17854;SDS011;9053;53.358;6.382;2023-04-24T10:07:29;6.37;;;3.83;;
17854;SDS011;9053;53.358;6.382;2023-04-24T10:10:16;5.90;;;3.10;;
17854;SDS011;9053;53.358;6.382;2023-04-24T10:12:48;7.93;;;3.63;;
17854;SDS011;9053;53.358;6.382;2023-04-24T10:15:20;8.37;;;3.60;;
17854;SDS011;9053;53.358;6.382;2023-04-24T10:17:52;6.27;;;3.20;;
17854;SDS011;9053;53.358;6.382;2023-04-24T10:20:26;9.87;;;3.70;;
17854;SDS011;9053;53.358;6.382;2023-04-24T10:22:58;8.97;;;3.60;;
17854;SDS011;9053;53.358;6.382;2023-04-24T10:25:32;6.60;;;3.33;;
17854;SDS011;9053;53.358;6.382;2023-04-24T10:28:03;9.10;;;3.63;;
17854;SDS011;9053;53.358;6.382;2023-04-24T10:30:39;8.17;;;3.53;;
17854;SDS011;9053;53.358;6.382;2023-04-24T10:33:12;6.17;;;3.10;;
17854;SDS011;9053;53.358;6.382;2023-04-24T10:35:50;6.97;;;2.90;;
17854;SDS011;9053;53.358;6.382;2023-04-24T10:38:25;7.73;;;3.47;;
17854;SDS011;9053;53.358;6.382;2023-04-24T10:41:07;6.93;;;3.20;;
17854;SDS011;9053;53.358;6.382;2023-04-24T10:43:47;8.30;;;3.50;;
17854;SDS011;9053;53.358;6.382;2023-04-24T10:46:19;11.33;;;3.00;;
17854;SDS011;9053;53.358;6.382;2023-04-24T10:48:52;6.23;;;2.77;;
17854;SDS011;9053;53.358;6.382;2023-04-24T10:51:44;10.70;;;3.10;;
17854;SDS011;9053;53.358;6.382;2023-04-24T10:54:22;6.60;;;2.90;;
17854;SDS011;9053;53.358;6.382;2023-04-24T11:00:13;9.83;;;3.07;;
17854;SDS011;9053;53.358;6.382;2023-04-24T11:02:48;7.80;;;2.77;;
17854;SDS011;9053;53.358;6.382;2023-04-24T11:05:22;5.23;;;2.60;;
17854;SDS011;9053;53.358;6.382;2023-04-24T11:10:43;12.83;;;3.33;;
17854;SDS011;9053;53.358;6.382;2023-04-24T11:13:25;5.53;;;2.40;;
17854;SDS011;9053;53.358;6.382;2023-04-24T11:16:28;7.67;;;2.83;;
17854;SDS011;9053;53.358;6.382;2023-04-24T11:19:04;10.57;;;2.57;;
17854;SDS011;9053;53.358;6.382;2023-04-24T11:21:39;8.43;;;2.70;;
17854;SDS011;9053;53.358;6.382;2023-04-24T11:24:29;7.10;;;2.10;;
17854;SDS011;9053;53.358;6.382;2023-04-24T11:27:07;6.80;;;2.10;;
17854;SDS011;9053;53.358;6.382;2023-04-24T11:29:42;8.03;;;2.37;;
17854;SDS011;9053;53.358;6.382;2023-04-24T11:32:25;9.67;;;2.30;;
17854;SDS011;9053;53.358;6.382;2023-04-24T11:35:03;7.83;;;2.27;;
17854;SDS011;9053;53.358;6.382;2023-04-24T11:37:36;7.13;;;2.20;;
17854;SDS011;9053;53.358;6.382;2023-04-24T11:40:13;7.97;;;2.30;;
17854;SDS011;9053;53.358;6.382;2023-04-24T11:42:47;8.03;;;2.07;;
17854;SDS011;9053;53.358;6.382;2023-04-24T11:45:17;5.57;;;2.03;;
17854;SDS011;9053;53.358;6.382;2023-04-24T11:47:50;5.27;;;2.10;;
17854;SDS011;9053;53.358;6.382;2023-04-24T11:50:22;4.03;;;1.80;;
17854;SDS011;9053;53.358;6.382;2023-04-24T11:52:58;5.43;;;2.03;;
17854;SDS011;9053;53.358;6.382;2023-04-24T11:55:38;11.00;;;2.20;;
17854;SDS011;9053;53.358;6.382;2023-04-24T11:58:15;6.30;;;1.73;;
17854;SDS011;9053;53.358;6.382;2023-04-24T12:00:55;6.67;;;1.70;;
17854;SDS011;9053;53.358;6.382;2023-04-24T12:03:38;6.40;;;2.07;;
17854;SDS011;9053;53.358;6.382;2023-04-24T12:06:14;6.60;;;1.57;;
17854;SDS011;9053;53.358;6.382;2023-04-24T12:08:47;4.70;;;1.67;;
17854;SDS011;9053;53.358;6.382;2023-04-24T12:11:39;5.03;;;1.50;;
17854;SDS011;9053;53.358;6.382;2023-04-24T12:14:22;7.73;;;1.30;;
17854;SDS011;9053;53.358;6.382;2023-04-24T12:17:04;5.17;;;1.33;;
17854;SDS011;9053;53.358;6.382;2023-04-24T12:19:37;9.60;;;2.27;;
17854;SDS011;9053;53.358;6.382;2023-04-24T12:22:08;6.47;;;1.83;;
17854;SDS011;9053;53.358;6.382;2023-04-24T12:27:37;6.20;;;1.60;;
17854;SDS011;9053;53.358;6.382;2023-04-24T12:30:13;6.37;;;1.70;;
17854;SDS011;9053;53.358;6.382;2023-04-24T12:32:49;3.73;;;1.80;;
17854;SDS011;9053;53.358;6.382;2023-04-24T12:35:22;9.20;;;1.87;;
17854;SDS011;9053;53.358;6.382;2023-04-24T12:37:54;6.10;;;1.90;;
17854;SDS011;9053;53.358;6.382;2023-04-24T12:40:24;6.50;;;1.70;;
17854;SDS011;9053;53.358;6.382;2023-04-24T12:42:59;6.57;;;1.50;;
17854;SDS011;9053;53.358;6.382;2023-04-24T12:45:45;6.43;;;1.60;;
17854;SDS011;9053;53.358;6.382;2023-04-24T12:48:20;5.80;;;1.47;;
17854;SDS011;9053;53.358;6.382;2023-04-24T12:50:49;4.27;;;1.30;;
17854;SDS011;9053;53.358;6.382;2023-04-24T12:53:22;5.43;;;1.47;;
17854;SDS011;9053;53.358;6.382;2023-04-24T12:55:55;7.37;;;1.50;;
17854;SDS011;9053;53.358;6.382;2023-04-24T12:58:28;4.90;;;1.43;;
17854;SDS011;9053;53.358;6.382;2023-04-24T13:00:58;3.30;;;1.27;;
17854;SDS011;9053;53.358;6.382;2023-04-24T13:03:41;6.77;;;1.47;;
17854;SDS011;9053;53.358;6.382;2023-04-24T13:06:16;4.00;;;1.20;;
17854;SDS011;9053;53.358;6.382;2023-04-24T13:08:49;5.87;;;1.40;;
17854;SDS011;9053;53.358;6.382;2023-04-24T13:11:27;6.57;;;1.50;;
17854;SDS011;9053;53.358;6.382;2023-04-24T13:14:02;3.73;;;1.40;;
17854;SDS011;9053;53.358;6.382;2023-04-24T13:16:35;3.30;;;1.27;;
17854;SDS011;9053;53.358;6.382;2023-04-24T13:19:06;3.40;;;1.27;;
17854;SDS011;9053;53.358;6.382;2023-04-24T13:21:41;6.40;;;1.60;;
17854;SDS011;9053;53.358;6.382;2023-04-24T13:24:13;5.63;;;1.60;;
17854;SDS011;9053;53.358;6.382;2023-04-24T13:26:43;3.40;;;1.20;;
17854;SDS011;9053;53.358;6.382;2023-04-24T13:29:17;1.90;;;1.00;;
17854;SDS011;9053;53.358;6.382;2023-04-24T13:31:49;2.97;;;1.40;;
17854;SDS011;9053;53.358;6.382;2023-04-24T13:34:25;2.70;;;1.13;;
17854;SDS011;9053;53.358;6.382;2023-04-24T13:37:01;2.27;;;1.40;;
17854;SDS011;9053;53.358;6.382;2023-04-24T13:39:35;4.67;;;1.30;;
17854;SDS011;9053;53.358;6.382;2023-04-24T13:42:05;4.70;;;1.90;;
17854;SDS011;9053;53.358;6.382;2023-04-24T13:44:41;3.10;;;1.43;;
17854;SDS011;9053;53.358;6.382;2023-04-24T13:47:13;3.60;;;1.40;;
17854;SDS011;9053;53.358;6.382;2023-04-24T13:49:50;3.60;;;1.43;;
17854;SDS011;9053;53.358;6.382;2023-04-24T13:52:20;3.17;;;1.40;;
17854;SDS011;9053;53.358;6.382;2023-04-24T13:54:50;5.40;;;1.67;;
17854;SDS011;9053;53.358;6.382;2023-04-24T13:57:20;5.20;;;1.87;;
17854;SDS011;9053;53.358;6.382;2023-04-24T13:59:55;5.17;;;1.93;;
17854;SDS011;9053;53.358;6.382;2023-04-24T14:02:30;4.97;;;2.00;;
17854;SDS011;9053;53.358;6.382;2023-04-24T14:05:04;4.93;;;1.77;;
17854;SDS011;9053;53.358;6.382;2023-04-24T14:07:37;3.73;;;1.87;;
17854;SDS011;9053;53.358;6.382;2023-04-24T14:10:10;5.27;;;2.33;;
17854;SDS011;9053;53.358;6.382;2023-04-24T14:12:40;4.37;;;2.00;;
17854;SDS011;9053;53.358;6.382;2023-04-24T14:15:12;3.10;;;2.10;;
17854;SDS011;9053;53.358;6.382;2023-04-24T14:17:43;8.60;;;2.67;;
17854;SDS011;9053;53.358;6.382;2023-04-24T14:20:13;8.10;;;2.60;;
17854;SDS011;9053;53.358;6.382;2023-04-24T14:22:42;7.70;;;3.13;;
17854;SDS011;9053;53.358;6.382;2023-04-24T14:25:12;7.47;;;2.87;;
17854;SDS011;9053;53.358;6.382;2023-04-24T14:27:42;5.73;;;2.90;;
17854;SDS011;9053;53.358;6.382;2023-04-24T14:30:19;11.80;;;3.40;;
17854;SDS011;9053;53.358;6.382;2023-04-24T14:32:51;7.07;;;2.97;;
17854;SDS011;9053;53.358;6.382;2023-04-24T14:35:21;9.73;;;3.63;;
17854;SDS011;9053;53.358;6.382;2023-04-24T14:37:56;6.37;;;3.20;;
17854;SDS011;9053;53.358;6.382;2023-04-24T14:40:29;5.87;;;3.37;;
17854;SDS011;9053;53.358;6.382;2023-04-24T14:43:22;12.13;;;3.60;;
17854;SDS011;9053;53.358;6.382;2023-04-24T14:45:57;7.67;;;3.40;;
17854;SDS011;9053;53.358;6.382;2023-04-24T14:48:48;9.27;;;3.60;;
17854;SDS011;9053;53.358;6.382;2023-04-24T14:51:17;8.13;;;3.20;;
17854;SDS011;9053;53.358;6.382;2023-04-24T14:53:49;8.43;;;3.63;;
17854;SDS011;9053;53.358;6.382;2023-04-24T14:56:21;9.73;;;4.17;;
17854;SDS011;9053;53.358;6.382;2023-04-24T14:58:51;9.87;;;3.83;;
17854;SDS011;9053;53.358;6.382;2023-04-24T15:01:23;10.43;;;4.33;;
17854;SDS011;9053;53.358;6.382;2023-04-24T15:04:01;10.17;;;4.10;;
17854;SDS011;9053;53.358;6.382;2023-04-24T15:06:31;14.10;;;4.30;;
17854;SDS011;9053;53.358;6.382;2023-04-24T15:09:02;11.90;;;4.60;;
17854;SDS011;9053;53.358;6.382;2023-04-24T15:11:32;11.67;;;4.10;;
17854;SDS011;9053;53.358;6.382;2023-04-24T15:14:02;10.30;;;3.33;;
17854;SDS011;9053;53.358;6.382;2023-04-24T15:16:34;11.07;;;3.77;;
17854;SDS011;9053;53.358;6.382;2023-04-24T15:19:04;10.97;;;3.50;;
17854;SDS011;9053;53.358;6.382;2023-04-24T15:21:34;7.90;;;3.57;;
17854;SDS011;9053;53.358;6.382;2023-04-24T15:24:09;8.97;;;3.60;;
17854;SDS011;9053;53.358;6.382;2023-04-24T15:26:38;9.47;;;3.90;;
17854;SDS011;9053;53.358;6.382;2023-04-24T15:29:08;13.27;;;4.13;;
17854;SDS011;9053;53.358;6.382;2023-04-24T15:31:41;10.70;;;4.00;;
17854;SDS011;9053;53.358;6.382;2023-04-24T15:34:11;9.27;;;3.33;;
17854;SDS011;9053;53.358;6.382;2023-04-24T15:36:40;8.03;;;2.90;;
17854;SDS011;9053;53.358;6.382;2023-04-24T15:39:10;9.67;;;3.20;;
17854;SDS011;9053;53.358;6.382;2023-04-24T15:41:40;7.80;;;2.97;;
17854;SDS011;9053;53.358;6.382;2023-04-24T15:44:10;6.63;;;2.70;;
17854;SDS011;9053;53.358;6.382;2023-04-24T15:46:49;7.13;;;2.97;;
17854;SDS011;9053;53.358;6.382;2023-04-24T15:49:19;6.23;;;2.97;;
17854;SDS011;9053;53.358;6.382;2023-04-24T15:51:49;4.97;;;2.90;;
17854;SDS011;9053;53.358;6.382;2023-04-24T15:54:19;8.07;;;3.27;;
17854;SDS011;9053;53.358;6.382;2023-04-24T15:56:49;10.10;;;3.60;;
17854;SDS011;9053;53.358;6.382;2023-04-24T15:59:19;9.93;;;3.63;;
17854;SDS011;9053;53.358;6.382;2023-04-24T16:01:52;9.53;;;3.70;;
17854;SDS011;9053;53.358;6.382;2023-04-24T16:04:22;11.40;;;3.73;;
17854;SDS011;9053;53.358;6.382;2023-04-24T16:06:55;9.57;;;3.33;;
17854;SDS011;9053;53.358;6.382;2023-04-24T16:09:25;8.83;;;3.60;;
17854;SDS011;9053;53.358;6.382;2023-04-24T16:11:55;10.73;;;3.37;;
17854;SDS011;9053;53.358;6.382;2023-04-24T16:14:25;11.33;;;3.07;;
17854;SDS011;9053;53.358;6.382;2023-04-24T16:16:57;8.07;;;2.70;;
17854;SDS011;9053;53.358;6.382;2023-04-24T16:19:30;9.10;;;2.63;;
17854;SDS011;9053;53.358;6.382;2023-04-24T16:22:00;7.57;;;3.00;;
17854;SDS011;9053;53.358;6.382;2023-04-24T16:24:30;6.47;;;2.80;;
17854;SDS011;9053;53.358;6.382;2023-04-24T16:27:02;6.53;;;2.43;;
17854;SDS011;9053;53.358;6.382;2023-04-24T16:29:32;5.63;;;2.57;;
17854;SDS011;9053;53.358;6.382;2023-04-24T16:32:05;6.80;;;2.63;;
17854;SDS011;9053;53.358;6.382;2023-04-24T16:34:35;5.57;;;2.10;;
17854;SDS011;9053;53.358;6.382;2023-04-24T16:37:05;3.00;;;1.50;;
17854;SDS011;9053;53.358;6.382;2023-04-24T16:39:34;3.33;;;1.23;;
17854;SDS011;9053;53.358;6.382;2023-04-24T16:42:04;3.13;;;1.37;;
17854;SDS011;9053;53.358;6.382;2023-04-24T16:44:34;4.73;;;1.30;;
17854;SDS011;9053;53.358;6.382;2023-04-24T16:47:08;3.40;;;1.67;;
17854;SDS011;9053;53.358;6.382;2023-04-24T16:49:39;3.50;;;1.57;;
17854;SDS011;9053;53.358;6.382;2023-04-24T16:52:09;2.90;;;1.70;;
17854;SDS011;9053;53.358;6.382;2023-04-24T16:54:40;5.37;;;2.27;;
17854;SDS011;9053;53.358;6.382;2023-04-24T16:57:09;4.60;;;2.37;;
17854;SDS011;9053;53.358;6.382;2023-04-24T16:59:40;4.27;;;2.40;;
17854;SDS011;9053;53.358;6.382;2023-04-24T17:02:13;5.57;;;2.20;;
17854;SDS011;9053;53.358;6.382;2023-04-24T17:04:43;4.57;;;2.13;;
17854;SDS011;9053;53.358;6.382;2023-04-24T17:07:13;3.23;;;2.20;;
17854;SDS011;9053;53.358;6.382;2023-04-24T17:09:47;3.87;;;2.00;;
17854;SDS011;9053;53.358;6.382;2023-04-24T17:12:21;4.53;;;2.30;;
17854;SDS011;9053;53.358;6.382;2023-04-24T17:14:56;2.17;;;1.83;;
17854;SDS011;9053;53.358;6.382;2023-04-24T17:17:30;3.97;;;2.07;;
17854;SDS011;9053;53.358;6.382;2023-04-24T17:20:08;3.13;;;2.00;;
17854;SDS011;9053;53.358;6.382;2023-04-24T17:22:48;6.23;;;3.30;;
17854;SDS011;9053;53.358;6.382;2023-04-24T17:25:23;4.40;;;2.30;;
17854;SDS011;9053;53.358;6.382;2023-04-24T17:27:52;6.20;;;3.23;;
17854;SDS011;9053;53.358;6.382;2023-04-24T17:30:26;3.23;;;2.50;;
17854;SDS011;9053;53.358;6.382;2023-04-24T17:32:59;6.57;;;3.10;;
17854;SDS011;9053;53.358;6.382;2023-04-24T17:35:29;6.47;;;3.13;;
17854;SDS011;9053;53.358;6.382;2023-04-24T17:38:05;4.00;;;2.83;;
17854;SDS011;9053;53.358;6.382;2023-04-24T17:40:35;5.23;;;2.83;;
17854;SDS011;9053;53.358;6.382;2023-04-24T17:43:06;4.43;;;2.30;;
17854;SDS011;9053;53.358;6.382;2023-04-24T17:45:36;5.23;;;2.50;;
17854;SDS011;9053;53.358;6.382;2023-04-24T17:48:08;3.57;;;2.37;;
17854;SDS011;9053;53.358;6.382;2023-04-24T17:50:38;4.30;;;2.20;;
17854;SDS011;9053;53.358;6.382;2023-04-24T17:53:08;3.60;;;2.60;;
17854;SDS011;9053;53.358;6.382;2023-04-24T17:55:39;4.60;;;2.73;;
17854;SDS011;9053;53.358;6.382;2023-04-24T17:58:10;4.67;;;2.60;;
17854;SDS011;9053;53.358;6.382;2023-04-24T18:00:40;4.70;;;2.70;;
17854;SDS011;9053;53.358;6.382;2023-04-24T18:03:12;3.23;;;2.23;;
17854;SDS011;9053;53.358;6.382;2023-04-24T18:05:49;7.67;;;2.50;;
17854;SDS011;9053;53.358;6.382;2023-04-24T18:08:19;4.60;;;2.40;;
17854;SDS011;9053;53.358;6.382;2023-04-24T18:10:49;5.93;;;2.43;;
17854;SDS011;9053;53.358;6.382;2023-04-24T18:13:19;8.37;;;2.67;;
17854;SDS011;9053;53.358;6.382;2023-04-24T18:15:49;9.63;;;3.07;;
17854;SDS011;9053;53.358;6.382;2023-04-24T18:18:21;5.83;;;2.60;;
17854;SDS011;9053;53.358;6.382;2023-04-24T18:20:51;7.90;;;3.27;;
17854;SDS011;9053;53.358;6.382;2023-04-24T18:23:21;7.00;;;3.23;;
17854;SDS011;9053;53.358;6.382;2023-04-24T18:25:52;7.27;;;3.10;;
17854;SDS011;9053;53.358;6.382;2023-04-24T18:28:21;8.23;;;4.20;;
17854;SDS011;9053;53.358;6.382;2023-04-24T18:30:51;6.87;;;2.90;;
17854;SDS011;9053;53.358;6.382;2023-04-24T18:33:24;9.33;;;3.77;;
17854;SDS011;9053;53.358;6.382;2023-04-24T18:35:54;6.90;;;3.70;;
17854;SDS011;9053;53.358;6.382;2023-04-24T18:38:24;11.70;;;4.03;;
17854;SDS011;9053;53.358;6.382;2023-04-24T18:40:54;5.23;;;3.63;;
17854;SDS011;9053;53.358;6.382;2023-04-24T18:43:24;11.47;;;4.20;;
17854;SDS011;9053;53.358;6.382;2023-04-24T18:45:54;10.07;;;4.83;;
17854;SDS011;9053;53.358;6.382;2023-04-24T18:48:28;10.63;;;4.03;;
17854;SDS011;9053;53.358;6.382;2023-04-24T18:50:58;12.10;;;4.53;;
17854;SDS011;9053;53.358;6.382;2023-04-24T18:53:28;11.33;;;3.80;;
17854;SDS011;9053;53.358;6.382;2023-04-24T18:55:58;16.87;;;4.30;;
17854;SDS011;9053;53.358;6.382;2023-04-24T18:58:30;10.83;;;3.67;;
17854;SDS011;9053;53.358;6.382;2023-04-24T19:00:59;12.43;;;4.17;;
17854;SDS011;9053;53.358;6.382;2023-04-24T19:03:35;6.30;;;3.83;;
17854;SDS011;9053;53.358;6.382;2023-04-24T19:06:10;13.97;;;3.47;;
17854;SDS011;9053;53.358;6.382;2023-04-24T19:08:41;7.23;;;3.00;;
17854;SDS011;9053;53.358;6.382;2023-04-24T19:11:11;5.80;;;2.67;;
17854;SDS011;9053;53.358;6.382;2023-04-24T19:13:41;5.83;;;2.77;;
17854;SDS011;9053;53.358;6.382;2023-04-24T19:16:11;5.43;;;3.00;;
17854;SDS011;9053;53.358;6.382;2023-04-24T19:18:43;7.03;;;3.53;;
17854;SDS011;9053;53.358;6.382;2023-04-24T19:21:13;7.83;;;3.00;;
17854;SDS011;9053;53.358;6.382;2023-04-24T19:23:43;5.87;;;3.43;;
17854;SDS011;9053;53.358;6.382;2023-04-24T19:26:15;8.37;;;3.00;;
17854;SDS011;9053;53.358;6.382;2023-04-24T19:28:47;10.60;;;3.20;;
17854;SDS011;9053;53.358;6.382;2023-04-24T19:31:19;10.67;;;3.67;;
17854;SDS011;9053;53.358;6.382;2023-04-24T19:33:51;15.47;;;3.73;;
17854;SDS011;9053;53.358;6.382;2023-04-24T19:36:24;14.60;;;4.47;;
17854;SDS011;9053;53.358;6.382;2023-04-24T19:38:54;17.50;;;4.87;;
17854;SDS011;9053;53.358;6.382;2023-04-24T19:41:24;15.30;;;4.93;;
17854;SDS011;9053;53.358;6.382;2023-04-24T19:43:54;20.37;;;4.80;;
17854;SDS011;9053;53.358;6.382;2023-04-24T19:46:24;15.33;;;5.17;;
17854;SDS011;9053;53.358;6.382;2023-04-24T19:48:56;20.97;;;5.60;;
17854;SDS011;9053;53.358;6.382;2023-04-24T19:51:26;23.37;;;5.37;;
17854;SDS011;9053;53.358;6.382;2023-04-24T19:54:05;18.87;;;5.60;;
17854;SDS011;9053;53.358;6.382;2023-04-24T19:56:38;20.97;;;5.80;;
17854;SDS011;9053;53.358;6.382;2023-04-24T19:59:25;18.73;;;5.57;;
17854;SDS011;9053;53.358;6.382;2023-04-24T20:01:57;25.17;;;5.63;;
17854;SDS011;9053;53.358;6.382;2023-04-24T20:04:33;24.40;;;6.23;;
17854;SDS011;9053;53.358;6.382;2023-04-24T20:07:09;24.70;;;6.97;;
17854;SDS011;9053;53.358;6.382;2023-04-24T20:09:43;24.60;;;6.60;;
17854;SDS011;9053;53.358;6.382;2023-04-24T20:12:13;24.37;;;6.47;;
17854;SDS011;9053;53.358;6.382;2023-04-24T20:14:46;21.27;;;5.07;;
17854;SDS011;9053;53.358;6.382;2023-04-24T20:17:30;18.33;;;5.40;;
17854;SDS011;9053;53.358;6.382;2023-04-24T20:20:07;21.37;;;5.47;;
17854;SDS011;9053;53.358;6.382;2023-04-24T20:22:42;20.60;;;5.40;;
17854;SDS011;9053;53.358;6.382;2023-04-24T20:25:12;23.77;;;5.47;;
17854;SDS011;9053;53.358;6.382;2023-04-24T20:27:45;17.33;;;4.37;;
17854;SDS011;9053;53.358;6.382;2023-04-24T20:30:16;17.37;;;4.50;;
17854;SDS011;9053;53.358;6.382;2023-04-24T20:33:01;23.43;;;5.27;;
17854;SDS011;9053;53.358;6.382;2023-04-24T20:35:33;14.63;;;4.90;;
17854;SDS011;9053;53.358;6.382;2023-04-24T20:38:03;23.23;;;5.57;;
17854;SDS011;9053;53.358;6.382;2023-04-24T20:40:36;29.87;;;6.30;;
17854;SDS011;9053;53.358;6.382;2023-04-24T20:43:22;23.13;;;5.77;;
17854;SDS011;9053;53.358;6.382;2023-04-24T20:45:54;19.60;;;5.40;;
17854;SDS011;9053;53.358;6.382;2023-04-24T20:48:27;22.87;;;5.67;;
17854;SDS011;9053;53.358;6.382;2023-04-24T20:51:08;21.10;;;5.37;;
17854;SDS011;9053;53.358;6.382;2023-04-24T20:53:42;19.50;;;5.00;;